Time;durP1;ratioP1;P1;durP2;ratioP2;P2;SDS_P1;SDS_P2;PMS_P1;PMS_P2;Temp;Humidity;BMP_temperature;BMP_pressure;BME280_temperature;BME280_humidity;BME280_pressure;Samples;Min_cycle;Max_cycle;Signal;HPM_P1;HPM_P2
2022/08/05 00:00:22;;;;;;;7.85;6.90;;;;;;;25.09;51.40;93336.69;6151996;23;20020;-91
2022/08/05 00:02:47;;;;;;;8.60;6.85;;;;;;;25.06;51.52;93329.50;6153614;23;20075;-92
2022/08/05 00:05:13;;;;;;;8.48;6.47;;;;;;;25.07;51.41;93325.44;6132095;23;20024;-92
2022/08/05 00:07:38;;;;;;;8.15;6.57;;;;;;;25.09;51.36;93323.59;6130944;23;20017;-92
2022/08/05 00:10:04;;;;;;;9.13;6.57;;;;;;;25.07;51.46;93326.19;6125512;23;20064;-92
2022/08/05 00:12:30;;;;;;;8.48;6.93;;;;;;;25.06;51.75;93324.72;6103641;23;20449;-92
2022/08/05 00:14:55;;;;;;;9.25;7.38;;;;;;;25.05;51.44;93323.25;6151448;23;20484;-92
2022/08/05 00:17:20;;;;;;;8.82;7.00;;;;;;;25.06;51.38;93319.19;6130034;23;20072;-93
2022/08/05 00:19:46;;;;;;;8.32;6.95;;;;;;;25.05;51.59;93317.69;6153858;23;20028;-92
2022/08/05 00:22:11;;;;;;;9.05;7.50;;;;;;;25.06;51.38;93321.94;6105015;23;20013;-92
2022/08/05 00:24:37;;;;;;;7.90;6.72;;;;;;;25.06;51.53;93315.69;6154087;23;20017;-93
2022/08/05 00:27:02;;;;;;;8.55;7.10;;;;;;;25.08;51.69;93319.34;6128460;23;20102;-93
2022/08/05 00:29:28;;;;;;;8.23;6.30;;;;;;;25.04;51.52;93310.69;6125934;23;20345;-92
2022/08/05 00:31:54;;;;;;;7.47;6.70;;;;;;;25.03;51.28;93314.75;6154586;23;20028;-92
2022/08/05 00:34:19;;;;;;;7.55;6.22;;;;;;;25.05;51.41;93308.66;6151191;23;20017;-94
2022/08/05 00:36:44;;;;;;;8.70;6.32;;;;;;;25.03;51.80;93303.69;6127029;23;20507;-92
2022/08/05 00:39:11;;;;;;;7.75;6.07;;;;;;;25.03;51.64;93312.00;6154607;23;20041;-92
2022/08/05 00:41:36;;;;;;;9.27;6.82;;;;;;;25.00;51.60;93304.81;6154554;23;20092;-92
2022/08/05 00:44:02;;;;;;;8.85;6.00;;;;;;;25.04;51.50;93309.97;6104997;23;20257;-92
2022/08/05 00:46:27;;;;;;;9.05;6.10;;;;;;;25.02;51.42;93301.47;6106251;23;20021;-92
2022/08/05 00:48:53;;;;;;;7.93;6.15;;;;;;;25.02;51.62;93298.72;6154353;23;20025;-92
2022/08/05 00:51:19;;;;;;;8.25;6.68;;;;;;;25.02;51.54;93301.47;6130907;23;20019;-92
2022/08/05 00:53:44;;;;;;;8.30;6.50;;;;;;;25.05;51.42;93295.56;6102754;23;21504;-92
2022/08/05 00:56:10;;;;;;;7.70;5.95;;;;;;;25.02;51.38;93290.41;6107014;23;20067;-92
2022/08/05 00:58:35;;;;;;;7.63;6.05;;;;;;;25.01;51.49;93297.25;6128414;23;20017;-92
2022/08/05 01:01:04;;;;;;;8.68;6.43;;;;;;;25.00;51.49;93302.03;6126528;23;20017;-92
2022/08/05 01:03:29;;;;;;;9.25;6.18;;;;;;;25.03;51.37;93292.63;6101817;23;20021;-91
2022/08/05 01:05:54;;;;;;;7.13;5.93;;;;;;;25.00;51.67;93284.69;6146206;23;20024;-92
2022/08/05 01:08:20;;;;;;;7.65;5.55;;;;;;;25.01;51.45;93288.94;6101404;23;20032;-92
2022/08/05 01:10:55;;;;;;;7.40;5.80;;;;;;;25.01;51.51;93286.19;6129889;23;20040;-92
2022/08/05 01:13:33;;;;;;;6.90;5.57;;;;;;;25.00;51.53;93290.25;6114955;23;20025;-93
2022/08/05 01:16:04;;;;;;;6.88;5.68;;;;;;;25.01;51.74;93286.19;6150909;23;20016;-92
2022/08/05 01:18:32;;;;;;;7.28;5.55;;;;;;;25.00;51.48;93287.47;6103839;23;20021;-93
2022/08/05 01:21:18;;;;;;;8.48;5.75;;;;;;;24.99;51.28;93283.22;6104737;23;20036;-92
2022/08/05 01:24:06;;;;;;;6.05;5.10;;;;;;;24.98;51.40;93270.69;6143769;23;20014;-92
2022/08/05 01:27:00;;;;;;;7.20;5.82;;;;;;;24.97;51.38;93278.25;6106264;23;20025;-92
2022/08/05 01:29:33;;;;;;;5.97;5.38;;;;;;;24.97;51.39;93275.50;6158634;23;20547;-92
2022/08/05 01:32:01;;;;;;;6.40;5.07;;;;;;;24.96;51.47;93276.78;6101594;23;20017;-92
2022/08/05 01:34:37;;;;;;;6.05;4.90;;;;;;;24.96;51.69;93276.03;6095954;23;20037;-93
2022/08/05 01:37:11;;;;;;;7.07;5.43;;;;;;;24.97;51.62;93274.75;6100027;23;20025;-92
2022/08/05 01:39:36;;;;;;;7.53;6.18;;;;;;;24.99;51.74;93272.16;6126813;23;20021;-92
2022/08/05 01:42:02;;;;;;;6.18;5.43;;;;;;;24.97;51.49;93275.50;6153917;23;20048;-92
2022/08/05 01:44:27;;;;;;;5.45;4.93;;;;;;;24.98;51.46;93270.69;6104470;23;20138;-92
2022/08/05 01:46:53;;;;;;;7.45;5.32;;;;;;;24.96;51.62;93267.75;6129481;23;20322;-92
2022/08/05 01:49:21;;;;;;;6.97;5.15;;;;;;;24.97;51.54;93260.94;6101248;23;20021;-92
2022/08/05 01:51:47;;;;;;;6.43;5.13;;;;;;;24.97;51.56;93261.66;6103374;23;20013;-92
2022/08/05 01:54:12;;;;;;;6.03;5.00;;;;;;;24.96;51.39;93264.97;6103465;23;20020;-92
2022/08/05 01:56:38;;;;;;;5.45;4.35;;;;;;;24.97;51.39;93261.66;6128746;23;20139;-92
2022/08/05 01:59:07;;;;;;;5.65;4.78;;;;;;;24.96;51.16;93264.97;6104258;23;20037;-92
2022/08/05 02:01:33;;;;;;;7.15;5.32;;;;;;;24.97;51.57;93261.66;6105034;23;20025;-92
2022/08/05 02:03:58;;;;;;;6.53;4.88;;;;;;;24.95;51.36;93258.72;6098849;23;22044;-92
2022/08/05 02:06:24;;;;;;;6.20;4.55;;;;;;;24.92;51.50;93260.53;6103466;23;20044;-92
2022/08/05 02:08:49;;;;;;;5.95;4.72;;;;;;;24.96;51.33;93262.97;6126059;23;20021;-92
2022/08/05 02:11:15;;;;;;;5.28;4.53;;;;;;;24.97;51.66;93252.63;6128985;23;20036;-92
2022/08/05 02:14:04;;;;;;;6.47;4.75;;;;;;;24.96;51.54;93259.44;6102841;23;20478;-92
2022/08/05 02:16:35;;;;;;;5.93;4.55;;;;;;;24.93;51.49;93252.97;6109314;23;20028;-92
2022/08/05 02:19:16;;;;;;;4.90;4.38;;;;;;;24.93;51.53;93250.94;6128795;23;20029;-92
2022/08/05 02:21:53;;;;;;;5.90;4.97;;;;;;;24.92;51.35;93257.03;6128026;23;20036;-92
2022/08/05 02:24:21;;;;;;;6.78;4.80;;;;;;;24.94;51.47;93249.69;6104810;23;20016;-93
2022/08/05 02:26:49;;;;;;;5.45;4.38;;;;;;;24.96;51.52;93249.13;6100899;23;20076;-92
2022/08/05 02:29:16;;;;;;;5.20;4.40;;;;;;;24.93;51.29;93259.25;6104357;23;20025;-92
2022/08/05 02:31:42;;;;;;;6.68;4.90;;;;;;;24.93;51.66;93261.28;6105707;23;20079;-93
2022/08/05 02:34:11;;;;;;;5.40;4.63;;;;;;;24.92;51.54;93263.31;6107251;23;20025;-93
2022/08/05 02:36:40;;;;;;;6.25;4.55;;;;;;;24.94;51.45;93263.50;6130985;23;20021;-92
2022/08/05 02:39:06;;;;;;;6.50;5.18;;;;;;;24.94;51.38;93257.97;6093425;23;20036;-92
2022/08/05 02:41:31;;;;;;;4.80;4.30;;;;;;;24.95;51.29;93253.19;6156943;23;20661;-93
2022/08/05 02:43:57;;;;;;;5.28;4.40;;;;;;;24.96;51.54;93251.16;6154138;23;20071;-92
2022/08/05 02:46:22;;;;;;;5.47;4.60;;;;;;;24.94;51.28;93255.22;6129053;23;20104;-92
2022/08/05 02:48:48;;;;;;;5.90;4.38;;;;;;;24.94;51.59;93254.44;6151048;23;20013;-93
2022/08/05 02:51:14;;;;;;;5.40;3.80;;;;;;;24.92;51.65;93255.00;6131436;23;20008;-92
2022/08/05 02:53:39;;;;;;;5.57;4.47;;;;;;;24.94;51.58;93237.84;6106849;23;20305;-93
2022/08/05 02:56:06;;;;;;;7.43;4.90;;;;;;;24.91;51.40;93250.03;6154241;23;20021;-92
2022/08/05 02:58:31;;;;;;;5.47;4.32;;;;;;;24.91;51.48;93250.03;6108006;23;20029;-92
2022/08/05 03:00:59;;;;;;;5.65;4.03;;;;;;;24.90;51.38;93241.00;6095516;23;20019;-92
2022/08/05 03:03:24;;;;;;;5.68;4.38;;;;;;;24.92;51.31;93251.50;6132003;23;20021;-92
2022/08/05 03:05:50;;;;;;;6.00;4.68;;;;;;;24.90;51.54;93246.53;6100417;23;20020;-92
2022/08/05 03:08:16;;;;;;;5.40;4.20;;;;;;;24.91;51.55;93244.50;6106423;23;20017;-91
2022/08/05 03:10:44;;;;;;;6.80;4.28;;;;;;;24.89;51.39;93242.31;6129522;23;20021;-92
2022/08/05 03:13:13;;;;;;;6.22;4.57;;;;;;;24.92;51.35;93241.19;6106727;23;20501;-92
2022/08/05 03:15:44;;;;;;;5.72;4.18;;;;;;;24.87;51.27;93233.84;6098318;23;20020;-92
2022/08/05 03:18:09;;;;;;;;;;;;;;;24.89;51.50;93242.31;6099986;23;20012;-93
2022/08/05 03:20:34;;;;;;;6.57;4.30;;;;;;;24.88;51.71;93240.84;6156088;23;19916;-92
2022/08/05 03:23:04;;;;;;;5.78;4.00;;;;;;;24.88;51.38;93231.81;6107761;23;20095;-92
2022/08/05 03:25:30;;;;;;;5.18;4.22;;;;;;;24.89;51.42;93244.34;6106676;23;20087;-92
2022/08/05 03:27:57;;;;;;;4.43;3.70;;;;;;;24.87;51.41;93233.09;6107116;23;20437;-92
2022/08/05 03:30:23;;;;;;;5.75;4.10;;;;;;;24.89;51.39;93238.81;6131017;23;20013;-92
2022/08/05 03:32:48;;;;;;;6.25;4.43;;;;;;;24.90;51.46;93231.97;6131520;23;20095;-92
2022/08/05 03:35:14;;;;;;;5.35;3.60;;;;;;;24.87;51.31;93233.09;6106595;23;20730;-93
2022/08/05 03:37:39;;;;;;;4.50;3.80;;;;;;;24.86;51.39;93232.38;6131966;23;20025;-92
2022/08/05 03:40:07;;;;;;;6.15;4.75;;;;;;;24.85;51.50;93238.47;6125567;23;20108;-92
2022/08/05 03:42:33;;;;;;;5.97;4.30;;;;;;;24.85;51.46;93227.41;6129028;23;20071;-92
2022/08/05 03:44:59;;;;;;;4.85;3.63;;;;;;;24.88;51.48;93232.56;6106883;23;20100;-93
2022/08/05 03:47:25;;;;;;;5.78;4.22;;;;;;;24.86;51.40;93224.06;6106065;23;20040;-92
2022/08/05 03:49:50;;;;;;;4.82;3.60;;;;;;;24.85;51.44;93235.69;6131256;23;20024;-92
2022/08/05 03:52:18;;;;;;;5.30;4.10;;;;;;;24.85;51.75;93235.69;6106894;23;20025;-92
2022/08/05 03:54:55;;;;;;;5.07;3.95;;;;;;;24.86;51.47;93239.94;6103868;23;20039;-92
2022/08/05 03:57:23;;;;;;;3.92;3.25;;;;;;;24.86;51.37;93239.94;6124613;23;20024;-91
2022/08/05 03:59:52;;;;;;;4.03;3.50;;;;;;;24.85;51.42;93236.44;6105378;23;20495;-92
2022/08/05 04:02:19;;;;;;;4.55;3.55;;;;;;;24.87;51.36;93242.13;6105081;23;20013;-92
2022/08/05 04:04:44;;;;;;;4.53;3.55;;;;;;;24.87;51.52;93233.09;6131000;23;20025;-92
2022/08/05 04:07:10;;;;;;;4.47;3.78;;;;;;;24.87;51.25;93228.31;6108339;23;20019;-92
2022/08/05 04:09:35;;;;;;;5.53;3.85;;;;;;;24.87;51.56;93236.59;6130919;23;20021;-92
2022/08/05 04:12:01;;;;;;;4.55;3.47;;;;;;;24.86;51.37;93237.91;6107114;23;20017;-92
2022/08/05 04:14:27;;;;;;;3.60;3.30;;;;;;;24.92;51.27;93238.41;6132208;23;20017;-92
2022/08/05 04:16:53;;;;;;;4.10;3.70;;;;;;;24.96;51.22;93238.06;6131886;23;20020;-93
2022/08/05 04:19:18;;;;;;;4.70;3.65;;;;;;;25.04;50.96;93229.75;6129838;23;20056;-93
2022/08/05 04:21:44;;;;;;;4.30;3.50;;;;;;;25.06;50.96;93235.47;6131031;23;20020;-92
2022/08/05 04:24:09;;;;;;;4.97;3.67;;;;;;;25.10;50.75;93239.31;6128327;23;20013;-92
2022/08/05 04:26:35;;;;;;;3.80;3.10;;;;;;;25.17;51.15;93232.28;6104408;23;20020;-92
2022/08/05 04:29:00;;;;;;;4.18;3.50;;;;;;;25.12;50.50;93228.41;6100744;23;20015;-92
2022/08/05 04:31:26;;;;;;;8.55;3.40;;;;;;;25.17;49.89;93233.00;6131375;23;20025;-92
2022/08/05 04:33:51;;;;;;;5.25;3.40;;;;;;;25.03;48.25;93231.78;6127705;23;20029;-93
2022/08/05 04:36:17;;;;;;;4.75;3.65;;;;;;;24.83;48.23;93233.47;6156832;23;20021;-91
2022/08/05 04:38:42;;;;;;;5.15;4.07;;;;;;;24.62;48.31;93240.53;6155693;23;20062;-91
2022/08/05 04:41:08;;;;;;;17.95;12.50;;;;;;;24.42;49.03;93236.72;6158042;23;20344;-92
2022/08/05 04:43:33;;;;;;;56.67;26.60;;;;;;;24.27;49.94;93226.38;6099671;23;20083;-92
2022/08/05 04:45:59;;;;;;;35.30;16.83;;;;;;;24.15;50.72;93239.09;6105240;23;20017;-93
2022/08/05 04:48:24;;;;;;;14.77;9.30;;;;;;;24.06;51.06;93237.59;6113470;23;20055;-93
2022/08/05 04:50:50;;;;;;;12.55;10.18;;;;;;;24.02;51.00;93240.03;6161109;23;20552;-92
2022/08/05 04:53:16;;;;;;;13.57;7.55;;;;;;;24.08;50.49;93237.78;6107791;23;20013;-91
2022/08/05 04:55:42;;;;;;;11.77;6.50;;;;;;;24.09;50.18;93239.25;6100868;23;20024;-93
2022/08/05 04:58:09;;;;;;;8.27;5.35;;;;;;;24.07;50.32;93232.81;6107264;23;20028;-92
2022/08/05 05:00:34;;;;;;;13.02;5.78;;;;;;;24.00;50.41;93242.59;6100228;23;20025;-91
2022/08/05 05:03:00;;;;;;;9.70;5.45;;;;;;;24.03;50.61;93249.78;6103359;23;20385;-91
2022/08/05 05:05:26;;;;;;;12.73;6.00;;;;;;;24.06;51.08;93245.88;6098143;23;20385;-91
2022/08/05 05:07:52;;;;;;;11.65;5.18;;;;;;;24.02;50.89;93250.31;6148946;23;20029;-91
2022/08/05 05:10:18;;;;;;;11.60;4.82;;;;;;;23.88;51.40;93247.72;6070143;23;20032;-91
2022/08/05 05:12:43;;;;;;;5.65;5.15;;;;;;;23.88;51.90;93256.00;6066390;23;20053;-92
2022/08/05 05:15:09;;;;;;;6.30;5.20;;;;;;;23.83;51.60;93259.69;6062185;23;20033;-90
2022/08/05 05:17:39;;;;;;;7.07;6.03;;;;;;;23.86;51.56;93258.59;6064644;23;20045;-91
2022/08/05 05:20:06;;;;;;;9.65;6.00;;;;;;;23.85;51.31;93248.81;6038873;23;20061;-90
2022/08/05 05:22:31;;;;;;;8.40;5.78;;;;;;;23.84;51.95;93252.13;6066753;23;20022;-90
2022/08/05 05:24:56;;;;;;;10.10;5.82;;;;;;;23.86;52.59;93249.56;6019323;23;20089;-92
2022/08/05 05:27:22;;;;;;;7.72;5.53;;;;;;;23.86;52.85;93247.53;6040931;23;20025;-92
2022/08/05 05:29:48;;;;;;;9.93;5.50;;;;;;;23.91;53.36;93254.16;6063264;23;20043;-92
2022/08/05 05:32:13;;;;;;;7.55;5.05;;;;;;;23.86;53.54;93255.09;6041404;23;20023;-92
2022/08/05 05:34:38;;;;;;;9.35;4.70;;;;;;;23.77;53.72;93255.63;6017165;23;20026;-92
2022/08/05 05:37:04;;;;;;;6.15;4.75;;;;;;;23.74;52.93;93243.66;6040334;23;20018;-90
2022/08/05 05:39:30;;;;;;;10.10;4.88;;;;;;;23.75;52.41;93252.69;6041167;23;20029;-90
2022/08/05 05:41:56;;;;;;;9.50;4.70;;;;;;;23.83;51.92;93245.13;6063624;23;20022;-89
2022/08/05 05:44:23;;;;;;;5.30;4.78;;;;;;;23.90;51.94;93250.69;6095870;23;20018;-90
2022/08/05 05:46:48;;;;;;;6.15;4.57;;;;;;;23.96;51.63;93249.75;6096339;23;20069;-90
2022/08/05 05:49:14;;;;;;;9.07;6.68;;;;;;;24.03;51.78;93246.28;6069882;23;20018;-92
2022/08/05 05:51:39;;;;;;;7.05;5.85;;;;;;;24.15;52.23;93250.13;6095995;23;20022;-89
2022/08/05 05:54:05;;;;;;;7.75;5.72;;;;;;;24.19;51.74;93248.47;6084534;23;20017;-92
2022/08/05 05:56:30;;;;;;;6.63;5.93;;;;;;;24.19;52.62;93248.47;6096303;23;20029;-91
2022/08/05 05:58:56;;;;;;;7.38;6.13;;;;;;;24.22;52.89;93244.63;6071223;23;20018;-90
2022/08/05 06:01:21;;;;;;;6.15;5.50;;;;;;;24.26;52.89;93245.00;6069435;23;20029;-91
2022/08/05 06:03:47;;;;;;;14.75;6.50;;;;;;;24.36;52.53;93244.44;6091769;23;20072;-90
2022/08/05 06:06:12;;;;;;;12.98;6.38;;;;;;;24.31;52.35;93248.13;6096506;23;20018;-93
2022/08/05 06:08:39;;;;;;;18.60;11.52;;;;;;;24.23;52.98;93256.41;6122203;23;20033;-91
2022/08/05 06:11:07;;;;;;;20.05;14.98;;;;;;;24.25;52.50;93251.06;6095148;23;20037;-92
2022/08/05 06:13:34;;;;;;;13.40;9.48;;;;;;;24.25;52.79;93257.31;6099065;23;20072;-91
2022/08/05 06:16:02;;;;;;;21.48;19.05;;;;;;;24.32;53.32;93261.38;6097909;23;20021;-91
2022/08/05 06:18:27;;;;;;;15.80;11.07;;;;;;;24.33;53.35;93260.09;6097531;23;20022;-91
2022/08/05 06:20:54;;;;;;;16.67;7.85;;;;;;;24.34;54.02;93258.06;6116762;23;20033;-90
2022/08/05 06:23:19;;;;;;;16.58;8.32;;;;;;;24.38;54.64;93259.19;6100430;23;20022;-89
2022/08/05 06:25:45;;;;;;;12.73;7.65;;;;;;;24.41;54.46;93258.06;6090314;23;20018;-91
2022/08/05 06:28:10;;;;;;;11.45;7.30;;;;;;;24.43;54.17;93257.53;6076039;23;20025;-90
2022/08/05 06:30:36;;;;;;;9.82;6.82;;;;;;;24.47;53.94;93255.09;6099155;23;20089;-92
2022/08/05 06:33:01;;;;;;;8.38;7.47;;;;;;;24.47;53.87;93257.88;6095453;23;20034;-92
2022/08/05 06:35:27;;;;;;;16.25;8.02;;;;;;;24.55;53.78;93256.56;6146089;23;20021;-92
2022/08/05 06:37:52;;;;;;;11.48;7.60;;;;;;;24.54;53.93;93265.41;6084868;23;20095;-92
2022/08/05 06:40:17;;;;;;;32.63;18.88;;;;;;;24.57;53.90;93259.53;6096558;23;20014;-91
2022/08/05 06:42:44;;;;;;;35.15;22.98;;;;;;;24.63;53.91;93262.09;6082732;23;20040;-90
2022/08/05 06:45:10;;;;;;;36.35;22.20;;;;;;;24.66;53.71;93260.25;6122218;23;20080;-91
2022/08/05 06:47:36;;;;;;;32.47;15.23;;;;;;;24.69;53.42;93259.13;6090396;23;20044;-91
2022/08/05 06:50:02;;;;;;;32.35;13.73;;;;;;;24.75;53.33;93259.66;6147090;23;20017;-91
2022/08/05 06:52:27;;;;;;;32.40;12.90;;;;;;;24.75;53.30;93260.41;6125044;23;20021;-91
2022/08/05 06:54:53;;;;;;;31.52;16.80;;;;;;;24.76;53.79;93266.66;6098456;23;20056;-90
2022/08/05 06:57:18;;;;;;;34.35;18.92;;;;;;;24.76;53.53;93272.94;6123629;23;20024;-90
2022/08/05 06:59:44;;;;;;;60.45;32.85;;;;;;;24.84;54.09;93270.91;6090277;23;20027;-90
2022/08/05 07:02:09;;;;;;;65.38;41.30;;;;;;;24.86;53.78;93279.38;6098342;23;20025;-90
2022/08/05 07:04:35;;;;;;;65.60;42.17;;;;;;;24.90;53.86;93281.75;6089426;23;20013;-91
2022/08/05 07:07:00;;;;;;;69.85;39.08;;;;;;;24.93;53.93;93292.44;6098361;23;20037;-92
2022/08/05 07:09:26;;;;;;;62.63;34.45;;;;;;;24.96;54.20;93278.81;6130912;23;20101;-92
2022/08/05 07:11:54;;;;;;;57.53;30.98;;;;;;;24.94;54.23;93277.34;6063145;23;20102;-92
2022/08/05 07:17:04;;;;;;;27.05;17.30;;;;;;;25.00;52.69;93282.69;6048139;23;20025;-92
2022/08/05 07:19:32;;;;;;;24.55;15.15;;;;;;;25.10;52.10;93282.84;6037418;23;20019;-91
2022/08/05 07:21:58;;;;;;;18.15;10.57;;;;;;;25.09;51.11;93279.34;6060568;23;20038;-91
2022/08/05 07:24:25;;;;;;;19.40;9.25;;;;;;;25.06;50.59;93282.47;6031076;23;20018;-91
2022/08/05 07:26:50;;;;;;;21.98;10.63;;;;;;;25.07;50.65;93283.97;6039249;23;20508;-91
2022/08/05 07:29:17;;;;;;;15.80;10.73;;;;;;;25.11;50.69;93289.84;6026242;23;20056;-91
2022/08/05 07:31:42;;;;;;;10.57;7.32;;;;;;;25.10;50.41;93289.13;6045945;23;20029;-92
2022/08/05 07:34:08;;;;;;;14.65;8.00;;;;;;;25.09;50.38;93279.34;6025986;23;20022;-91
2022/08/05 07:36:33;;;;;;;20.92;8.73;;;;;;;25.16;50.29;93295.16;6046136;23;20015;-91
2022/08/05 07:39:03;;;;;;;9.90;6.95;;;;;;;25.16;49.83;93291.66;6047936;23;20018;-91
2022/08/05 07:41:29;;;;;;;8.13;6.75;;;;;;;25.17;49.44;93293.13;6036000;23;20023;-92
2022/08/05 07:43:55;;;;;;;11.88;6.00;;;;;;;25.22;49.14;93290.16;6101512;23;20029;-91
2022/08/05 07:46:20;;;;;;;9.15;5.72;;;;;;;25.27;48.91;93282.97;6117394;23;20009;-91
2022/08/05 07:48:46;;;;;;;13.15;5.43;;;;;;;25.22;48.87;93297.72;6153265;23;20090;-91
2022/08/05 07:51:12;;;;;;;6.25;4.70;;;;;;;25.18;49.06;93287.03;6113257;23;20018;-91
2022/08/05 07:53:38;;;;;;;6.32;5.10;;;;;;;25.24;48.99;93295.88;6134243;23;20022;-92
2022/08/05 07:56:07;;;;;;;7.78;5.72;;;;;;;25.27;48.97;93299.56;6117068;23;20033;-91
2022/08/05 07:58:43;;;;;;;17.80;9.68;;;;;;;25.22;49.16;93300.50;6115356;23;20014;-92
2022/08/05 08:01:09;;;;;;;15.52;9.18;;;;;;;25.29;49.42;93308.03;6127166;23;20110;-92
2022/08/05 08:03:34;;;;;;;14.85;11.30;;;;;;;25.27;49.16;93302.34;6120900;23;20073;-91
2022/08/05 08:06:01;;;;;;;16.33;10.38;;;;;;;25.28;49.14;93298.28;6105491;23;20025;-92
2022/08/05 08:08:27;;;;;;;12.63;10.02;;;;;;;25.32;49.21;93303.44;6133711;23;20025;-91
2022/08/05 08:10:55;;;;;;;15.30;8.82;;;;;;;25.32;49.56;93308.97;6125436;23;20080;-91
2022/08/05 08:13:21;;;;;;;12.35;9.00;;;;;;;25.33;49.30;93313.94;6134420;23;20013;-91
2022/08/05 08:15:46;;;;;;;10.05;7.15;;;;;;;25.35;49.68;93313.34;6094190;23;20422;-91
2022/08/05 08:18:12;;;;;;;8.75;6.65;;;;;;;25.35;49.92;93314.09;6098526;23;20345;-90
2022/08/05 08:20:38;;;;;;;10.57;6.95;;;;;;;25.35;49.87;93308.56;6151606;23;20026;-91
2022/08/05 08:23:04;;;;;;;8.20;5.97;;;;;;;25.33;50.11;93305.63;6129290;23;20022;-91
2022/08/05 08:25:29;;;;;;;9.15;6.45;;;;;;;25.35;50.44;93307.81;6130013;23;20072;-91
2022/08/05 08:28:04;;;;;;;11.50;7.22;;;;;;;25.38;50.21;93315.00;6096241;23;20022;-91
2022/08/05 08:30:31;;;;;;;8.30;6.20;;;;;;;25.33;50.78;93318.72;6129475;23;20018;-91
2022/08/05 08:33:08;;;;;;;9.43;5.30;;;;;;;25.34;51.05;93314.66;6129139;23;20021;-90
2022/08/05 08:35:34;;;;;;;5.88;5.28;;;;;;;25.42;50.90;93307.06;6197907;23;20025;-90
2022/08/05 08:38:00;;;;;;;8.48;5.65;;;;;;;25.46;52.58;93312.97;6112810;23;20017;-89
2022/08/05 08:40:27;;;;;;;5.80;5.10;;;;;;;25.53;51.30;93321.25;6114159;23;20024;-91
2022/08/05 08:42:53;;;;;;;6.53;5.70;;;;;;;25.52;51.00;93310.72;6158773;23;20032;-91
2022/08/05 08:45:20;;;;;;;5.78;4.60;;;;;;;25.46;51.21;93319.22;6130986;23;20020;-91
2022/08/05 08:47:46;;;;;;;6.32;5.10;;;;;;;25.48;50.73;93324.94;6106581;23;20016;-90
2022/08/05 08:50:12;;;;;;;5.90;5.07;;;;;;;25.49;50.44;93323.66;6154303;23;20611;-91
2022/08/05 08:52:38;;;;;;;7.38;6.13;;;;;;;25.45;50.75;93314.25;6130558;23;20024;-92
2022/08/05 08:55:04;;;;;;;7.10;5.13;;;;;;;25.48;50.61;93324.94;6128165;23;20014;-91
2022/08/05 08:57:29;;;;;;;8.45;6.65;;;;;;;25.45;50.79;93320.53;6105688;23;20013;-92
2022/08/05 08:59:55;;;;;;;9.80;7.32;;;;;;;25.51;50.97;93331.41;6105882;23;20016;-92
2022/08/05 09:02:20;;;;;;;11.13;8.00;;;;;;;25.48;51.16;93335.28;6129033;23;20143;-91
2022/08/05 09:04:46;;;;;;;13.18;8.32;;;;;;;25.50;51.14;93332.69;6119856;23;20017;-92
2022/08/05 09:07:12;;;;;;;13.05;7.68;;;;;;;25.50;51.20;93332.69;6128603;23;20017;-91
2022/08/05 09:09:37;;;;;;;8.52;7.60;;;;;;;25.50;51.04;93330.66;6090067;23;20039;-91
2022/08/05 09:12:04;;;;;;;10.48;7.15;;;;;;;25.48;51.57;93329.75;6106043;23;20017;-92
2022/08/05 09:14:31;;;;;;;14.60;7.30;;;;;;;25.55;51.66;93331.72;6132002;23;20445;-91
2022/08/05 09:16:57;;;;;;;10.23;6.22;;;;;;;25.56;52.06;93331.16;6129178;23;20043;-91
2022/08/05 09:19:22;;;;;;;7.60;5.75;;;;;;;25.57;51.95;93338.19;6132013;23;20512;-92
2022/08/05 09:21:48;;;;;;;12.52;6.80;;;;;;;25.56;51.84;93339.47;6130238;23;20013;-91
2022/08/05 09:24:13;;;;;;;9.77;5.78;;;;;;;25.60;52.47;93333.56;6153759;23;20112;-91
2022/08/05 09:26:39;;;;;;;7.13;5.45;;;;;;;25.65;53.24;93340.94;6157241;23;20017;-91
2022/08/05 09:29:06;;;;;;;11.27;6.82;;;;;;;25.66;52.81;93341.69;6157671;23;20059;-90
2022/08/05 09:31:31;;;;;;;9.70;6.50;;;;;;;25.63;52.73;93334.50;6107230;23;20081;-91
2022/08/05 09:33:59;;;;;;;14.15;5.93;;;;;;;25.65;52.96;93343.72;6115209;23;20030;-90
2022/08/05 09:36:48;;;;;;;14.82;8.55;;;;;;;25.63;53.79;93340.78;6122708;23;20449;-91
2022/08/05 09:39:15;;;;;;;22.50;11.32;;;;;;;25.60;53.67;93336.31;6091127;23;20022;-91
2022/08/05 09:41:57;;;;;;;24.30;9.35;;;;;;;25.61;53.34;93343.34;6095956;23;20538;-89
2022/08/05 09:44:33;;;;;;;88.50;17.25;;;;;;;25.55;53.68;93340.75;6116578;23;20149;-93
2022/08/05 09:47:13;;;;;;;92.95;22.65;;;;;;;25.54;53.87;93335.81;6133463;23;20018;-89
2022/08/05 09:49:46;;;;;;;68.15;24.00;;;;;;;25.53;53.78;93337.09;6117160;23;20084;-92
2022/08/05 09:52:19;;;;;;;64.03;20.15;;;;;;;25.54;53.96;93338.59;6130942;23;20104;-91
2022/08/05 09:54:59;;;;;;;58.92;21.00;;;;;;;25.55;53.67;93331.72;6119095;23;20036;-90
2022/08/05 09:57:32;;;;;;;45.50;17.13;;;;;;;25.55;53.96;93331.72;6097317;23;20041;-90
2022/08/05 10:00:07;;;;;;;41.97;15.70;;;;;;;25.51;53.64;93329.34;6095596;23;20049;-90
2022/08/05 10:02:41;;;;;;;54.85;15.57;;;;;;;25.46;52.99;93330.28;6141108;23;20025;-90
2022/08/05 10:05:11;;;;;;;46.65;15.57;;;;;;;25.53;53.84;93329.53;6092793;23;20610;-91
2022/08/05 10:07:53;;;;;;;50.72;14.40;;;;;;;25.52;53.72;93328.06;6097958;23;20049;-91
2022/08/05 10:10:22;;;;;;;49.70;17.55;;;;;;;25.52;53.74;93328.06;6140763;23;20066;-90
2022/08/05 10:12:50;;;;;;;43.50;14.30;;;;;;;25.52;53.68;93330.09;6092128;23;20025;-90
2022/08/05 10:15:28;;;;;;;55.92;16.02;;;;;;;25.50;53.52;93338.22;6091475;23;20013;-90
2022/08/05 10:18:07;;;;;;;50.67;14.85;;;;;;;25.54;53.49;93335.81;6084958;23;20414;-90
2022/08/05 10:20:36;;;;;;;39.47;14.63;;;;;;;25.52;53.69;93335.63;6116438;23;20089;-91
2022/08/05 10:23:01;;;;;;;25.75;12.00;;;;;;;25.53;53.33;93334.34;6100838;23;20559;-91
2022/08/05 10:25:27;;;;;;;38.08;12.85;;;;;;;25.56;53.58;93338.72;6096421;23;20053;-91
2022/08/05 10:27:52;;;;;;;32.65;13.25;;;;;;;25.55;53.97;93346.28;6118550;23;20026;-91
2022/08/05 10:30:19;;;;;;;30.52;13.05;;;;;;;25.55;53.82;93345.56;6102723;23;20045;-90
2022/08/05 10:32:45;;;;;;;25.60;11.88;;;;;;;25.55;53.58;93346.28;6089122;23;20088;-91
2022/08/05 10:35:11;;;;;;;34.55;11.68;;;;;;;25.54;53.30;93353.16;6099327;23;20022;-90
2022/08/05 10:37:36;;;;;;;20.13;12.65;;;;;;;25.58;53.66;93352.75;6113447;23;20080;-91
2022/08/05 10:40:03;;;;;;;23.73;11.88;;;;;;;25.55;53.40;93343.53;6121854;23;20367;-91
2022/08/05 10:42:29;;;;;;;29.98;11.02;;;;;;;25.55;53.50;93343.53;6123172;23;20022;-90
2022/08/05 10:44:54;;;;;;;27.45;11.85;;;;;;;25.57;53.52;93346.47;6115516;23;20025;-90
2022/08/05 10:47:20;;;;;;;31.98;10.75;;;;;;;25.54;53.39;93349.66;6147435;23;20018;-90
2022/08/05 10:50:00;;;;;;;23.90;10.98;;;;;;;25.54;53.35;93347.63;6111586;23;20027;-91
2022/08/05 10:52:51;;;;;;;24.33;10.32;;;;;;;25.54;53.54;93347.63;6148429;23;20045;-90
2022/08/05 10:55:17;;;;;;;28.30;11.35;;;;;;;25.55;53.42;93345.56;6122181;23;20480;-90
2022/08/05 10:57:44;;;;;;;24.48;9.82;;;;;;;25.56;53.33;93347.03;6092775;23;20025;-90
2022/08/05 11:00:15;;;;;;;21.20;10.25;;;;;;;25.56;53.35;93349.81;6099936;23;20017;-90
2022/08/05 11:03:16;;;;;;;19.70;9.55;;;;;;;25.51;53.43;93356.31;6135836;23;20489;-90
2022/08/05 11:05:41;;;;;;;20.30;9.38;;;;;;;25.55;53.42;93351.84;6014741;23;20079;-90
2022/08/05 11:08:08;;;;;;;12.57;7.22;;;;;;;25.58;53.42;93342.41;6014157;23;20027;-90
2022/08/05 11:10:36;;;;;;;18.75;9.80;;;;;;;25.57;53.42;93346.47;6014429;23;20050;-90
2022/08/05 11:13:01;;;;;;;15.65;8.00;;;;;;;25.57;53.57;93342.97;5989411;23;20215;-90
2022/08/05 11:15:33;;;;;;;19.83;8.90;;;;;;;25.56;53.40;93347.78;6012180;23;20031;-90
2022/08/05 11:18:24;;;;;;;19.77;8.18;;;;;;;25.55;53.59;93340.03;5989293;23;20105;-91
2022/08/05 11:20:50;;;;;;;13.05;7.90;;;;;;;25.57;53.46;93340.22;6036609;23;20487;-91
2022/08/05 11:23:33;;;;;;;16.25;8.63;;;;;;;25.57;53.55;93345.75;6013981;23;20102;-91
2022/08/05 11:26:21;;;;;;;12.18;7.40;;;;;;;25.56;53.22;93341.50;6061953;23;20022;-90
2022/08/05 11:28:52;;;;;;;11.27;7.05;;;;;;;25.54;53.32;93350.38;6015533;23;20107;-90
2022/08/05 11:31:18;;;;;;;10.55;7.28;;;;;;;25.56;53.41;93358.09;6000780;23;20018;-90
2022/08/05 11:33:47;;;;;;;13.05;7.20;;;;;;;25.56;53.40;93358.09;6033227;23;20030;-89